Dunkirk, NY

3:06 AM EDT on June 23, 2017 (GMT -0400)
Chautauqua County-Dunkirk

Weather History for KDKK - February, 2013

Change the Weather History Date:

Wednesday, February 20, 2013

  Actual Average Record
Temperature  
Mean Temperature 22 °F -  
Max Temperature 24 °F 36 °F 63 °F (2016)
Min Temperature 19 °F 22 °F -15 °F (2015)
Degree Days  
Heating Degree Days 44    
Moisture  
Dew Point 13 °F    
Average Humidity 72    
Maximum Humidity 93    
Minimum Humidity 57    
Precipitation  
Precipitation 0.00 in - - ()
Sea Level Pressure  
Sea Level Pressure 29.93 in    
Wind  
Wind Speed 20 mph (West)    
Max Wind Speed 25 mph    
Max Gust Speed 40 mph    
Visibility 3 miles    
Events Fog , Snow    
Averages and records for this station are not official NWS values.
T = Trace of Precipitation, MM = Missing Value Source: NWS Daily Summary

Daily Weather History Graph

Daily Weather History Graph

Search for Another Location

Airport or City:

Trip Planner

Search our weather history database for the weather conditions in past years. The results will help you decide how hot, cold, wet, or windy it might be!

Date:

Astronomy

Feb. 20, 2013 Rise Set
Actual Time 7:06 AM EST 5:55 PM EST
Civil Twilight 6:37 AM EST 6:24 PM EST
Nautical Twilight 6:04 AM EST 6:57 PM EST
Astronomical Twilight 5:32 AM EST 7:29 PM EST
Moon 1:12 PM EST (2/20) 3:28 AM EST (2/20)
Length of Visible Light 11h 46m
Length of Day
10h 49m
Waxing Gibbous, 76% of the Moon is Illuminated
Feb 20
Waxing Gibbous
Feb 25
Full
Mar 4
Last Quarter
Mar 11
New
Mar 19
First Quarter

Hourly Weather History & Observations

Time (EST) Temp. Windchill Dew Point Humidity Pressure Visibility Wind Dir Wind Speed Gust Speed Precip Events Conditions
12:02 AM 23.0 °F 7.6 °F 15.8 °F 74% 29.81 in 3.0 mi WSW 21.9 mph 34.5 mph 0.00 in Snow Light Snow
12:09 AM 24.8 °F 11.1 °F 15.8 °F 69% 29.81 in 8.0 mi WSW 18.4 mph 28.8 mph 0.00 in   Overcast
12:20 AM 24.8 °F 9.0 °F 15.8 °F 69% 29.81 in 7.0 mi WSW 25.3 mph 35.7 mph 0.00 in Snow Light Snow
12:31 AM 21.2 °F 6.0 °F 17.6 °F 86% 29.82 in 1.5 mi WSW 19.6 mph 29.9 mph 0.00 in Snow Light Snow
12:49 AM 23.0 °F 8.7 °F 15.8 °F 74% 29.81 in 3.0 mi WSW 18.4 mph 32.2 mph 0.00 in Snow Light Snow
12:53 AM 23.0 °F 7.6 °F 15.1 °F 72% 29.84 in 4.0 mi WSW 21.9 mph 31.1 mph 0.00 in Snow Light Snow
1:04 AM 23.0 °F 7.2 °F 15.8 °F 74% 29.81 in 2.0 mi West 23.0 mph 33.4 mph 0.00 in Snow Light Snow
1:10 AM 23.0 °F 6.6 °F 17.6 °F 80% 29.82 in 1.0 mi WSW 25.3 mph 35.7 mph 0.00 in Snow Light Snow
1:17 AM 23.0 °F 8.3 °F 17.6 °F 80% 29.82 in 0.8 mi West 19.6 mph 35.7 mph 0.00 in Snow Light Snow
1:21 AM 23.0 °F 7.2 °F 17.6 °F 80% 29.82 in 1.2 mi WSW 23.0 mph 32.2 mph 0.00 in Snow Light Snow
1:39 AM 21.2 °F 5.2 °F 17.6 °F 86% 29.82 in 0.8 mi WSW 21.9 mph 34.5 mph 0.00 in Snow Light Snow
1:47 AM 21.2 °F 6.0 °F 17.6 °F 86% 29.82 in 1.2 mi WSW 19.6 mph 32.2 mph 0.00 in Snow Light Snow
1:53 AM 23.0 °F 8.0 °F 16.0 °F 74% 29.85 in 1.5 mi West 20.7 mph 31.1 mph 0.00 in Snow Light Snow
2:11 AM 23.0 °F 8.0 °F 15.8 °F 74% 29.83 in 2.0 mi West 20.7 mph 29.9 mph 0.00 in Snow Light Snow
2:35 AM 23.0 °F 7.6 °F 15.8 °F 74% 29.83 in 3.0 mi WSW 21.9 mph 29.9 mph 0.00 in Snow Light Snow
2:53 AM 21.9 °F 6.9 °F 17.1 °F 82% 29.86 in 1.5 mi West 19.6 mph 35.7 mph 0.00 in Snow Light Snow
3:02 AM 21.2 °F 6.0 °F 15.8 °F 80% 29.83 in 3.0 mi WSW 19.6 mph 32.2 mph 0.00 in Snow Light Snow
3:11 AM 21.2 °F 5.6 °F 15.8 °F 80% 29.83 in 2.0 mi WSW 20.7 mph 35.7 mph 0.00 in Snow Light Snow
3:43 AM 23.0 °F 8.7 °F 15.8 °F 74% 29.83 in 4.0 mi West 18.4 mph 29.9 mph 0.00 in Snow Light Snow
3:53 AM 23.0 °F 8.0 °F 15.1 °F 72% 29.87 in 5.0 mi West 20.7 mph 31.1 mph 0.00 in Snow Light Snow
4:09 AM 21.2 °F 6.8 °F 15.8 °F 80% 29.84 in 2.5 mi West 17.3 mph 32.2 mph 0.00 in Snow Light Snow
4:17 AM 21.2 °F 5.6 °F 17.6 °F 86% 29.84 in 1.5 mi West 20.7 mph 35.7 mph 0.00 in Snow Light Snow
4:23 AM 21.2 °F 5.6 °F 17.6 °F 86% 29.85 in 1.0 mi West 20.7 mph 32.2 mph 0.00 in Snow Light Snow
4:28 AM 21.2 °F 6.0 °F 17.6 °F 86% 29.85 in 0.2 mi WSW 19.6 mph 32.2 mph 0.00 in Fog , Snow Heavy Snow
4:46 AM 21.2 °F 5.2 °F 17.6 °F 86% 29.85 in 0.2 mi West 21.9 mph 40.3 mph 0.00 in Fog , Snow Heavy Snow
4:53 AM 21.0 °F 6.6 °F 18.0 °F 88% 29.88 in 0.5 mi West 17.3 mph 40.3 mph 0.00 in Fog , Snow Snow
5:53 AM 21.0 °F 9.3 °F 18.0 °F 88% 29.90 in 0.2 mi West 11.5 mph 24.2 mph 0.00 in Fog , Snow Snow
6:10 AM 19.4 °F 4.5 °F 15.8 °F 86% 29.87 in 0.5 mi West 17.3 mph 32.2 mph 0.00 in Fog , Snow Light Snow
6:27 AM 19.4 °F 4.1 °F 17.6 °F 93% 29.88 in 0.2 mi West 18.4 mph 33.4 mph 0.00 in Fog , Snow Snow
6:53 AM 19.9 °F 6.7 °F 17.1 °F 89% 29.92 in 0.2 mi West 13.8 mph 29.9 mph 0.00 in Fog , Snow Snow
7:38 AM 19.4 °F 2.1 °F 15.8 °F 86% 29.90 in 0.5 mi West 24.2 mph 36.8 mph 0.00 in Snow Snow
7:47 AM 19.4 °F 5.5 °F 14.0 °F 80% 29.90 in 0.2 mi West 15.0 mph 33.4 mph 0.00 in Snow Heavy Snow
7:53 AM 19.9 °F 3.9 °F 10.0 °F 65% 29.94 in 1.0 mi West 20.7 mph 36.8 mph 0.00 in Snow Light Snow
8:09 AM 19.4 °F 3.6 °F 12.2 °F 74% 29.91 in 1.2 mi West 19.6 mph 27.6 mph 0.00 in Snow Light Snow
8:12 AM 19.4 °F 4.5 °F 12.2 °F 74% 29.91 in 1.0 mi West 17.3 mph 27.6 mph 0.00 in Snow Light Snow
8:21 AM 19.4 °F 4.1 °F 12.2 °F 74% 29.92 in 1.2 mi West 18.4 mph 27.6 mph 0.00 in Snow Light Snow
8:31 AM 19.4 °F 3.2 °F 10.4 °F 68% 29.91 in 1.0 mi West 20.7 mph 36.8 mph 0.00 in Snow Light Snow
8:37 AM 19.4 °F 5.5 °F 10.4 °F 68% 29.91 in 2.0 mi West 15.0 mph 31.1 mph 0.00 in Snow Light Snow
8:53 AM 19.9 °F 3.9 °F 9.0 °F 62% 29.96 in 2.0 mi West 20.7 mph 32.2 mph 0.00 in Snow Light Snow
9:10 AM 19.4 °F 4.1 °F 10.4 °F 68% 29.93 in 3.0 mi West 18.4 mph 29.9 mph 0.00 in   Haze
9:39 AM 19.4 °F 4.1 °F 8.6 °F 63% 29.93 in 1.8 mi West 18.4 mph 35.7 mph 0.00 in Snow Light Snow
9:53 AM 19.9 °F 4.3 °F 8.1 °F 60% 29.97 in 2.0 mi West 19.6 mph 29.9 mph 0.00 in Snow Light Snow
10:12 AM 19.4 °F 6.0 °F 6.8 °F 58% 29.95 in 3.0 mi West 13.8 mph 33.4 mph 0.00 in   Haze
10:22 AM 19.4 °F 3.6 °F 6.8 °F 58% 29.95 in 2.0 mi West 19.6 mph 34.5 mph 0.00 in Snow Light Snow
10:29 AM 19.4 °F 3.6 °F 6.8 °F 58% 29.95 in 1.5 mi West 19.6 mph 29.9 mph 0.00 in Snow Light Snow
10:39 AM 19.4 °F 4.1 °F 6.8 °F 58% 29.96 in 3.0 mi West 18.4 mph 32.2 mph 0.00 in Snow Light Snow
10:53 AM 19.9 °F 6.2 °F 7.0 °F 57% 30.00 in 6.0 mi West 15.0 mph 27.6 mph 0.00 in   Haze
11:53 AM 19.9 °F 4.3 °F 8.1 °F 60% 30.01 in 3.0 mi West 19.6 mph 29.9 mph 0.00 in   Haze
12:53 PM 19.9 °F 5.2 °F 9.0 °F 62% 30.02 in 4.0 mi West 17.3 mph 31.1 mph 0.00 in Snow Light Snow
1:53 PM 21.0 °F 5.4 °F 8.1 °F 57% 30.04 in 4.0 mi West 20.7 mph 34.5 mph 0.00 in   Haze
2:53 PM 21.0 °F 6.6 °F 8.1 °F 57% 30.06 in 8.0 mi West 17.3 mph 31.1 mph 0.00 in   Overcast
3:53 PM 19.9 °F 5.2 °F 9.0 °F 62% 30.09 in 7.0 mi West 17.3 mph 28.8 mph N/A   Overcast
5:53 PM 19.9 °F 5.7 °F 8.1 °F 60% 30.14 in 7.0 mi West 16.1 mph 27.6 mph N/A   Overcast
6:53 PM 19.9 °F 4.3 °F 9.0 °F 62% 30.16 in 10.0 mi West 19.6 mph 29.9 mph N/A   Overcast
7:27 PM 21.2 °F 6.4 °F 10.4 °F 63% 30.13 in 9.0 mi West 18.4 mph 32.2 mph 0.00 in Snow Light Snow
7:53 PM 21.0 °F 7.1 °F 10.9 °F 65% 30.16 in 8.0 mi WNW 16.1 mph 25.3 mph 0.00 in Snow Light Snow
8:26 PM 21.2 °F 6.8 °F 10.4 °F 63% 30.12 in 10.0 mi West 17.3 mph 26.5 mph 0.00 in   Overcast
8:53 PM 21.0 °F 6.6 °F 9.0 °F 60% 30.16 in 10.0 mi WNW 17.3 mph 27.6 mph 0.00 in   Overcast
9:53 PM 21.9 °F 9.2 °F 10.0 °F 60% 30.16 in 10.0 mi West 13.8 mph 26.5 mph N/A   Overcast
11:23 PM 21.2 °F 8.3 °F 10.4 °F 63% 30.12 in 10.0 mi WNW 13.8 mph 23.0 mph N/A   Overcast
11:53 PM 21.0 °F 9.3 °F 10.9 °F 65% 30.15 in 10.0 mi West 11.5 mph 20.7 mph 0.00 in   Overcast